sensor_id;sensor_type;location;lat;lon;timestamp;P1;durP1;ratioP1;P2;durP2;ratioP2
37449;SDS011;23309;52.582;13.406;2022-11-22T00:01:11;14.18;;;10.40;;
37449;SDS011;23309;52.582;13.406;2022-11-22T00:03:37;14.68;;;10.27;;
37449;SDS011;23309;52.582;13.406;2022-11-22T00:06:03;15.70;;;10.10;;
37449;SDS011;23309;52.582;13.406;2022-11-22T00:08:29;13.93;;;10.55;;
37449;SDS011;23309;52.582;13.406;2022-11-22T00:10:56;13.15;;;9.15;;
37449;SDS011;23309;52.582;13.406;2022-11-22T00:13:22;13.20;;;9.38;;
37449;SDS011;23309;52.582;13.406;2022-11-22T00:15:58;14.45;;;9.52;;
37449;SDS011;23309;52.582;13.406;2022-11-22T00:18:25;14.68;;;10.65;;
37449;SDS011;23309;52.582;13.406;2022-11-22T00:20:52;15.45;;;10.68;;
37449;SDS011;23309;52.582;13.406;2022-11-22T00:23:19;15.88;;;10.98;;
37449;SDS011;23309;52.582;13.406;2022-11-22T00:25:48;14.60;;;10.80;;
37449;SDS011;23309;52.582;13.406;2022-11-22T00:28:16;17.25;;;11.43;;
37449;SDS011;23309;52.582;13.406;2022-11-22T00:30:42;17.30;;;10.93;;
37449;SDS011;23309;52.582;13.406;2022-11-22T00:33:13;14.57;;;10.30;;
37449;SDS011;23309;52.582;13.406;2022-11-22T00:35:39;14.65;;;10.60;;
37449;SDS011;23309;52.582;13.406;2022-11-22T00:38:05;15.10;;;11.13;;
37449;SDS011;23309;52.582;13.406;2022-11-22T00:40:32;17.27;;;11.05;;
37449;SDS011;23309;52.582;13.406;2022-11-22T00:42:58;17.67;;;10.93;;
37449;SDS011;23309;52.582;13.406;2022-11-22T00:45:24;16.15;;;10.85;;
37449;SDS011;23309;52.582;13.406;2022-11-22T00:47:50;13.40;;;10.60;;
37449;SDS011;23309;52.582;13.406;2022-11-22T00:50:27;16.05;;;11.52;;
37449;SDS011;23309;52.582;13.406;2022-11-22T00:52:56;15.05;;;10.95;;
37449;SDS011;23309;52.582;13.406;2022-11-22T00:55:24;15.80;;;11.07;;
37449;SDS011;23309;52.582;13.406;2022-11-22T00:57:50;15.70;;;11.27;;
37449;SDS011;23309;52.582;13.406;2022-11-22T01:00:16;14.98;;;11.00;;
37449;SDS011;23309;52.582;13.406;2022-11-22T01:02:43;16.58;;;11.27;;
37449;SDS011;23309;52.582;13.406;2022-11-22T01:05:10;15.18;;;10.15;;
37449;SDS011;23309;52.582;13.406;2022-11-22T01:07:39;17.08;;;11.20;;
37449;SDS011;23309;52.582;13.406;2022-11-22T01:10:05;16.88;;;11.80;;
37449;SDS011;23309;52.582;13.406;2022-11-22T01:12:32;15.90;;;10.73;;
37449;SDS011;23309;52.582;13.406;2022-11-22T01:14:59;16.15;;;10.90;;
37449;SDS011;23309;52.582;13.406;2022-11-22T01:17:25;17.27;;;11.13;;
37449;SDS011;23309;52.582;13.406;2022-11-22T01:19:52;16.58;;;11.15;;
37449;SDS011;23309;52.582;13.406;2022-11-22T01:22:19;14.70;;;10.50;;
37449;SDS011;23309;52.582;13.406;2022-11-22T01:24:47;14.95;;;10.35;;
37449;SDS011;23309;52.582;13.406;2022-11-22T01:27:13;15.30;;;11.90;;
37449;SDS011;23309;52.582;13.406;2022-11-22T01:29:41;17.05;;;11.10;;
37449;SDS011;23309;52.582;13.406;2022-11-22T01:32:08;16.23;;;11.80;;
37449;SDS011;23309;52.582;13.406;2022-11-22T01:34:35;17.30;;;11.20;;
37449;SDS011;23309;52.582;13.406;2022-11-22T01:37:03;17.45;;;11.02;;
37449;SDS011;23309;52.582;13.406;2022-11-22T01:39:29;14.57;;;10.15;;
37449;SDS011;23309;52.582;13.406;2022-11-22T01:41:58;16.00;;;11.60;;
37449;SDS011;23309;52.582;13.406;2022-11-22T01:44:25;16.77;;;11.63;;
37449;SDS011;23309;52.582;13.406;2022-11-22T01:46:56;15.63;;;10.75;;
37449;SDS011;23309;52.582;13.406;2022-11-22T01:49:26;14.70;;;10.55;;
37449;SDS011;23309;52.582;13.406;2022-11-22T01:51:57;16.92;;;11.02;;
37449;SDS011;23309;52.582;13.406;2022-11-22T01:54:29;17.30;;;11.57;;
37449;SDS011;23309;52.582;13.406;2022-11-22T01:57:03;16.80;;;10.85;;
37449;SDS011;23309;52.582;13.406;2022-11-22T01:59:45;16.95;;;11.55;;
37449;SDS011;23309;52.582;13.406;2022-11-22T02:02:16;16.02;;;11.10;;
37449;SDS011;23309;52.582;13.406;2022-11-22T02:04:45;14.35;;;10.75;;
37449;SDS011;23309;52.582;13.406;2022-11-22T02:07:18;21.13;;;11.55;;
37449;SDS011;23309;52.582;13.406;2022-11-22T02:09:50;15.80;;;11.13;;
37449;SDS011;23309;52.582;13.406;2022-11-22T02:12:21;16.25;;;10.95;;
37449;SDS011;23309;52.582;13.406;2022-11-22T02:14:54;18.48;;;11.75;;
37449;SDS011;23309;52.582;13.406;2022-11-22T02:17:23;19.83;;;11.25;;
37449;SDS011;23309;52.582;13.406;2022-11-22T02:19:52;16.02;;;10.70;;
37449;SDS011;23309;52.582;13.406;2022-11-22T02:22:23;15.88;;;11.13;;
37449;SDS011;23309;52.582;13.406;2022-11-22T02:24:58;18.20;;;11.68;;
37449;SDS011;23309;52.582;13.406;2022-11-22T02:27:34;16.85;;;10.63;;
37449;SDS011;23309;52.582;13.406;2022-11-22T02:30:01;18.30;;;10.80;;
37449;SDS011;23309;52.582;13.406;2022-11-22T02:32:27;15.52;;;11.02;;
37449;SDS011;23309;52.582;13.406;2022-11-22T02:34:53;18.05;;;11.35;;
37449;SDS011;23309;52.582;13.406;2022-11-22T02:37:21;19.35;;;12.32;;
37449;SDS011;23309;52.582;13.406;2022-11-22T02:39:51;13.93;;;10.40;;
37449;SDS011;23309;52.582;13.406;2022-11-22T02:42:23;16.15;;;11.85;;
37449;SDS011;23309;52.582;13.406;2022-11-22T02:44:53;16.35;;;11.05;;
37449;SDS011;23309;52.582;13.406;2022-11-22T02:47:19;13.50;;;9.70;;
37449;SDS011;23309;52.582;13.406;2022-11-22T02:49:45;14.27;;;10.40;;
37449;SDS011;23309;52.582;13.406;2022-11-22T02:52:14;15.10;;;11.05;;
37449;SDS011;23309;52.582;13.406;2022-11-22T02:54:41;18.92;;;11.05;;
37449;SDS011;23309;52.582;13.406;2022-11-22T02:57:07;15.30;;;10.73;;
37449;SDS011;23309;52.582;13.406;2022-11-22T02:59:34;17.58;;;10.95;;
37449;SDS011;23309;52.582;13.406;2022-11-22T03:02:06;16.10;;;10.80;;
37449;SDS011;23309;52.582;13.406;2022-11-22T03:04:33;16.05;;;11.05;;
37449;SDS011;23309;52.582;13.406;2022-11-22T03:07:00;14.10;;;10.75;;
37449;SDS011;23309;52.582;13.406;2022-11-22T03:09:26;13.80;;;10.57;;
37449;SDS011;23309;52.582;13.406;2022-11-22T03:11:52;13.70;;;9.88;;
37449;SDS011;23309;52.582;13.406;2022-11-22T03:14:19;15.88;;;10.98;;
37449;SDS011;23309;52.582;13.406;2022-11-22T03:16:48;14.80;;;10.30;;
37449;SDS011;23309;52.582;13.406;2022-11-22T03:19:19;15.52;;;11.25;;
37449;SDS011;23309;52.582;13.406;2022-11-22T03:21:45;16.15;;;11.02;;
37449;SDS011;23309;52.582;13.406;2022-11-22T03:24:11;16.77;;;10.43;;
37449;SDS011;23309;52.582;13.406;2022-11-22T03:26:38;14.77;;;10.80;;
37449;SDS011;23309;52.582;13.406;2022-11-22T03:29:04;16.08;;;11.10;;
37449;SDS011;23309;52.582;13.406;2022-11-22T03:31:30;14.45;;;10.98;;
37449;SDS011;23309;52.582;13.406;2022-11-22T03:33:56;15.82;;;11.20;;
37449;SDS011;23309;52.582;13.406;2022-11-22T03:36:27;14.90;;;10.80;;
37449;SDS011;23309;52.582;13.406;2022-11-22T03:38:53;15.82;;;11.52;;
37449;SDS011;23309;52.582;13.406;2022-11-22T03:41:19;17.73;;;10.98;;
37449;SDS011;23309;52.582;13.406;2022-11-22T03:43:45;15.70;;;10.45;;
37449;SDS011;23309;52.582;13.406;2022-11-22T03:46:12;14.43;;;10.63;;
37449;SDS011;23309;52.582;13.406;2022-11-22T03:48:39;16.02;;;10.70;;
37449;SDS011;23309;52.582;13.406;2022-11-22T03:51:06;15.90;;;10.80;;
37449;SDS011;23309;52.582;13.406;2022-11-22T03:53:38;18.88;;;11.40;;
37449;SDS011;23309;52.582;13.406;2022-11-22T03:56:07;16.35;;;11.23;;
37449;SDS011;23309;52.582;13.406;2022-11-22T03:58:33;14.00;;;10.30;;
37449;SDS011;23309;52.582;13.406;2022-11-22T04:01:00;17.45;;;11.43;;
37449;SDS011;23309;52.582;13.406;2022-11-22T04:03:27;14.07;;;10.18;;
37449;SDS011;23309;52.582;13.406;2022-11-22T04:06:03;14.88;;;10.10;;
37449;SDS011;23309;52.582;13.406;2022-11-22T04:08:29;17.30;;;11.63;;
37449;SDS011;23309;52.582;13.406;2022-11-22T04:10:58;17.05;;;11.15;;
37449;SDS011;23309;52.582;13.406;2022-11-22T04:13:24;16.90;;;11.35;;
37449;SDS011;23309;52.582;13.406;2022-11-22T04:15:54;15.40;;;10.43;;
37449;SDS011;23309;52.582;13.406;2022-11-22T04:18:22;18.30;;;11.32;;
37449;SDS011;23309;52.582;13.406;2022-11-22T04:20:50;18.45;;;11.32;;
37449;SDS011;23309;52.582;13.406;2022-11-22T04:23:17;16.58;;;10.95;;
37449;SDS011;23309;52.582;13.406;2022-11-22T04:25:45;15.95;;;11.10;;
37449;SDS011;23309;52.582;13.406;2022-11-22T04:28:16;14.68;;;10.40;;
37449;SDS011;23309;52.582;13.406;2022-11-22T04:30:44;18.38;;;11.80;;
37449;SDS011;23309;52.582;13.406;2022-11-22T04:33:10;16.20;;;11.73;;
37449;SDS011;23309;52.582;13.406;2022-11-22T04:35:38;16.20;;;10.95;;
37449;SDS011;23309;52.582;13.406;2022-11-22T04:38:07;18.75;;;11.48;;
37449;SDS011;23309;52.582;13.406;2022-11-22T04:40:33;17.70;;;11.75;;
37449;SDS011;23309;52.582;13.406;2022-11-22T04:43:03;18.83;;;11.65;;
37449;SDS011;23309;52.582;13.406;2022-11-22T04:45:33;20.60;;;12.18;;
37449;SDS011;23309;52.582;13.406;2022-11-22T04:47:59;16.83;;;11.75;;
37449;SDS011;23309;52.582;13.406;2022-11-22T04:50:26;19.40;;;11.95;;
37449;SDS011;23309;52.582;13.406;2022-11-22T04:52:54;19.98;;;11.85;;
37449;SDS011;23309;52.582;13.406;2022-11-22T04:55:21;18.95;;;12.63;;
37449;SDS011;23309;52.582;13.406;2022-11-22T04:57:50;18.35;;;12.45;;
37449;SDS011;23309;52.582;13.406;2022-11-22T05:00:17;19.50;;;12.52;;
37449;SDS011;23309;52.582;13.406;2022-11-22T05:02:47;21.77;;;13.00;;
37449;SDS011;23309;52.582;13.406;2022-11-22T05:05:13;20.23;;;12.63;;
37449;SDS011;23309;52.582;13.406;2022-11-22T05:07:41;20.13;;;12.65;;
37449;SDS011;23309;52.582;13.406;2022-11-22T05:10:08;19.50;;;13.00;;
37449;SDS011;23309;52.582;13.406;2022-11-22T05:12:34;20.33;;;12.63;;
37449;SDS011;23309;52.582;13.406;2022-11-22T05:15:04;18.45;;;12.60;;
37449;SDS011;23309;52.582;13.406;2022-11-22T05:17:32;22.05;;;14.18;;
37449;SDS011;23309;52.582;13.406;2022-11-22T05:20:03;19.48;;;13.13;;
37449;SDS011;23309;52.582;13.406;2022-11-22T05:22:33;22.45;;;14.10;;
37449;SDS011;23309;52.582;13.406;2022-11-22T05:24:59;23.23;;;13.13;;
37449;SDS011;23309;52.582;13.406;2022-11-22T05:27:28;23.63;;;13.80;;
37449;SDS011;23309;52.582;13.406;2022-11-22T05:29:54;19.40;;;13.80;;
37449;SDS011;23309;52.582;13.406;2022-11-22T05:32:20;19.45;;;12.70;;
37449;SDS011;23309;52.582;13.406;2022-11-22T05:34:46;23.83;;;14.38;;
37449;SDS011;23309;52.582;13.406;2022-11-22T05:37:15;23.77;;;14.85;;
37449;SDS011;23309;52.582;13.406;2022-11-22T05:39:41;22.08;;;14.25;;
37449;SDS011;23309;52.582;13.406;2022-11-22T05:42:07;20.52;;;14.48;;
37449;SDS011;23309;52.582;13.406;2022-11-22T05:44:33;22.92;;;14.20;;
37449;SDS011;23309;52.582;13.406;2022-11-22T05:46:59;24.17;;;15.02;;
37449;SDS011;23309;52.582;13.406;2022-11-22T05:49:25;23.58;;;14.40;;
37449;SDS011;23309;52.582;13.406;2022-11-22T05:51:51;22.25;;;14.20;;
37449;SDS011;23309;52.582;13.406;2022-11-22T05:54:22;22.58;;;13.15;;
37449;SDS011;23309;52.582;13.406;2022-11-22T05:56:48;22.33;;;14.85;;
37449;SDS011;23309;52.582;13.406;2022-11-22T05:59:14;22.02;;;14.18;;
37449;SDS011;23309;52.582;13.406;2022-11-22T06:01:40;24.10;;;14.07;;
37449;SDS011;23309;52.582;13.406;2022-11-22T06:04:07;22.92;;;14.15;;
37449;SDS011;23309;52.582;13.406;2022-11-22T06:06:33;21.17;;;13.32;;
37449;SDS011;23309;52.582;13.406;2022-11-22T06:08:59;22.83;;;13.70;;
37449;SDS011;23309;52.582;13.406;2022-11-22T06:11:28;22.98;;;13.52;;
37449;SDS011;23309;52.582;13.406;2022-11-22T06:13:55;22.60;;;14.60;;
37449;SDS011;23309;52.582;13.406;2022-11-22T06:16:24;24.17;;;13.90;;
37449;SDS011;23309;52.582;13.406;2022-11-22T06:18:51;24.85;;;14.63;;
37449;SDS011;23309;52.582;13.406;2022-11-22T06:21:18;23.73;;;14.75;;
37449;SDS011;23309;52.582;13.406;2022-11-22T06:23:46;22.23;;;13.88;;
37449;SDS011;23309;52.582;13.406;2022-11-22T06:26:12;20.25;;;13.50;;
37449;SDS011;23309;52.582;13.406;2022-11-22T06:28:44;20.85;;;14.30;;
37449;SDS011;23309;52.582;13.406;2022-11-22T06:31:13;22.58;;;13.90;;
37449;SDS011;23309;52.582;13.406;2022-11-22T06:33:41;22.63;;;13.18;;
37449;SDS011;23309;52.582;13.406;2022-11-22T06:36:09;23.48;;;13.77;;
37449;SDS011;23309;52.582;13.406;2022-11-22T06:38:37;21.02;;;13.90;;
37449;SDS011;23309;52.582;13.406;2022-11-22T06:41:05;21.88;;;13.88;;
37449;SDS011;23309;52.582;13.406;2022-11-22T06:43:33;22.65;;;13.68;;
37449;SDS011;23309;52.582;13.406;2022-11-22T06:46:05;23.65;;;14.05;;
37449;SDS011;23309;52.582;13.406;2022-11-22T06:48:35;21.08;;;13.70;;
37449;SDS011;23309;52.582;13.406;2022-11-22T06:51:04;26.65;;;14.55;;
37449;SDS011;23309;52.582;13.406;2022-11-22T06:53:32;23.83;;;14.25;;
37449;SDS011;23309;52.582;13.406;2022-11-22T06:56:00;22.20;;;13.98;;
37449;SDS011;23309;52.582;13.406;2022-11-22T06:58:27;23.75;;;14.45;;
37449;SDS011;23309;52.582;13.406;2022-11-22T07:00:57;22.95;;;14.27;;
37449;SDS011;23309;52.582;13.406;2022-11-22T07:03:27;21.95;;;13.50;;
37449;SDS011;23309;52.582;13.406;2022-11-22T07:05:57;27.45;;;14.20;;
37449;SDS011;23309;52.582;13.406;2022-11-22T07:08:23;23.52;;;14.00;;
37449;SDS011;23309;52.582;13.406;2022-11-22T07:10:49;21.23;;;13.82;;
37449;SDS011;23309;52.582;13.406;2022-11-22T07:13:15;22.65;;;13.93;;
37449;SDS011;23309;52.582;13.406;2022-11-22T07:15:41;22.13;;;13.95;;
37449;SDS011;23309;52.582;13.406;2022-11-22T07:18:07;22.63;;;14.43;;
37449;SDS011;23309;52.582;13.406;2022-11-22T07:20:36;20.92;;;13.65;;
37449;SDS011;23309;52.582;13.406;2022-11-22T07:23:02;22.55;;;14.45;;
37449;SDS011;23309;52.582;13.406;2022-11-22T07:25:28;20.20;;;12.88;;
37449;SDS011;23309;52.582;13.406;2022-11-22T07:27:54;25.20;;;14.90;;
37449;SDS011;23309;52.582;13.406;2022-11-22T07:30:21;25.88;;;14.63;;
37449;SDS011;23309;52.582;13.406;2022-11-22T07:32:49;24.20;;;15.10;;
37449;SDS011;23309;52.582;13.406;2022-11-22T07:35:15;21.80;;;13.90;;
37449;SDS011;23309;52.582;13.406;2022-11-22T07:37:44;20.67;;;13.70;;
37449;SDS011;23309;52.582;13.406;2022-11-22T07:40:11;21.35;;;13.55;;
37449;SDS011;23309;52.582;13.406;2022-11-22T07:42:37;22.75;;;13.27;;
37449;SDS011;23309;52.582;13.406;2022-11-22T07:45:04;24.13;;;14.70;;
37449;SDS011;23309;52.582;13.406;2022-11-22T07:47:31;27.05;;;14.73;;
37449;SDS011;23309;52.582;13.406;2022-11-22T07:49:57;23.40;;;13.80;;
37449;SDS011;23309;52.582;13.406;2022-11-22T07:52:23;20.67;;;13.65;;
37449;SDS011;23309;52.582;13.406;2022-11-22T07:54:52;22.05;;;13.75;;
37449;SDS011;23309;52.582;13.406;2022-11-22T07:57:18;19.42;;;13.20;;
37449;SDS011;23309;52.582;13.406;2022-11-22T07:59:44;25.20;;;13.60;;
37449;SDS011;23309;52.582;13.406;2022-11-22T08:02:10;20.60;;;13.10;;
37449;SDS011;23309;52.582;13.406;2022-11-22T08:04:37;26.67;;;14.93;;
37449;SDS011;23309;52.582;13.406;2022-11-22T08:07:03;24.63;;;14.15;;
37449;SDS011;23309;52.582;13.406;2022-11-22T08:09:29;23.75;;;14.35;;
37449;SDS011;23309;52.582;13.406;2022-11-22T08:11:58;24.45;;;14.95;;
37449;SDS011;23309;52.582;13.406;2022-11-22T08:14:24;25.65;;;14.65;;
37449;SDS011;23309;52.582;13.406;2022-11-22T08:16:50;22.40;;;14.45;;
37449;SDS011;23309;52.582;13.406;2022-11-22T08:19:17;22.48;;;14.05;;
37449;SDS011;23309;52.582;13.406;2022-11-22T08:21:43;27.33;;;15.27;;
37449;SDS011;23309;52.582;13.406;2022-11-22T08:24:10;24.75;;;15.05;;
37449;SDS011;23309;52.582;13.406;2022-11-22T08:26:36;23.98;;;13.98;;
37449;SDS011;23309;52.582;13.406;2022-11-22T08:29:05;22.67;;;15.27;;
37449;SDS011;23309;52.582;13.406;2022-11-22T08:31:33;25.23;;;14.93;;
37449;SDS011;23309;52.582;13.406;2022-11-22T08:33:59;22.65;;;14.75;;
37449;SDS011;23309;52.582;13.406;2022-11-22T08:36:26;23.20;;;14.35;;
37449;SDS011;23309;52.582;13.406;2022-11-22T08:38:52;24.23;;;15.18;;
37449;SDS011;23309;52.582;13.406;2022-11-22T08:41:18;20.40;;;13.20;;
37449;SDS011;23309;52.582;13.406;2022-11-22T08:43:47;26.92;;;16.17;;
37449;SDS011;23309;52.582;13.406;2022-11-22T08:46:16;25.25;;;15.05;;
37449;SDS011;23309;52.582;13.406;2022-11-22T08:48:43;27.38;;;15.25;;
37449;SDS011;23309;52.582;13.406;2022-11-22T08:51:11;24.63;;;14.35;;
37449;SDS011;23309;52.582;13.406;2022-11-22T08:53:39;24.92;;;14.75;;
37449;SDS011;23309;52.582;13.406;2022-11-22T08:56:07;25.05;;;15.65;;
37449;SDS011;23309;52.582;13.406;2022-11-22T08:58:36;29.23;;;15.98;;
37449;SDS011;23309;52.582;13.406;2022-11-22T09:01:03;24.77;;;15.18;;
37449;SDS011;23309;52.582;13.406;2022-11-22T09:03:32;26.13;;;15.75;;
37449;SDS011;23309;52.582;13.406;2022-11-22T09:06:00;30.50;;;16.33;;
37449;SDS011;23309;52.582;13.406;2022-11-22T09:08:26;37.42;;;17.30;;
37449;SDS011;23309;52.582;13.406;2022-11-22T09:10:52;26.95;;;16.70;;
37449;SDS011;23309;52.582;13.406;2022-11-22T09:13:18;29.98;;;17.90;;
37449;SDS011;23309;52.582;13.406;2022-11-22T09:15:44;25.85;;;16.05;;
37449;SDS011;23309;52.582;13.406;2022-11-22T09:18:11;29.85;;;16.35;;
37449;SDS011;23309;52.582;13.406;2022-11-22T09:20:39;30.70;;;17.40;;
37449;SDS011;23309;52.582;13.406;2022-11-22T09:23:05;31.90;;;16.58;;
37449;SDS011;23309;52.582;13.406;2022-11-22T09:25:31;30.13;;;16.90;;
37449;SDS011;23309;52.582;13.406;2022-11-22T09:27:58;30.38;;;17.05;;
37449;SDS011;23309;52.582;13.406;2022-11-22T09:30:24;29.23;;;17.42;;
37449;SDS011;23309;52.582;13.406;2022-11-22T09:32:50;26.87;;;16.47;;
37449;SDS011;23309;52.582;13.406;2022-11-22T09:35:16;26.98;;;16.80;;
37449;SDS011;23309;52.582;13.406;2022-11-22T09:37:45;33.15;;;18.83;;
37449;SDS011;23309;52.582;13.406;2022-11-22T09:40:13;32.75;;;17.02;;
37449;SDS011;23309;52.582;13.406;2022-11-22T09:42:43;31.30;;;17.40;;
37449;SDS011;23309;52.582;13.406;2022-11-22T09:45:33;32.50;;;18.05;;
37449;SDS011;23309;52.582;13.406;2022-11-22T09:48:23;32.90;;;17.73;;
37449;SDS011;23309;52.582;13.406;2022-11-22T09:51:17;30.20;;;17.13;;
37449;SDS011;23309;52.582;13.406;2022-11-22T09:53:54;31.58;;;17.95;;
37449;SDS011;23309;52.582;13.406;2022-11-22T09:56:25;32.00;;;17.33;;
37449;SDS011;23309;52.582;13.406;2022-11-22T09:58:53;36.88;;;19.27;;
37449;SDS011;23309;52.582;13.406;2022-11-22T10:01:25;34.93;;;19.03;;
37449;SDS011;23309;52.582;13.406;2022-11-22T10:03:59;36.10;;;18.20;;
37449;SDS011;23309;52.582;13.406;2022-11-22T10:06:31;35.10;;;18.90;;
37449;SDS011;23309;52.582;13.406;2022-11-22T10:09:09;34.83;;;19.50;;
37449;SDS011;23309;52.582;13.406;2022-11-22T10:11:47;33.00;;;18.33;;
37449;SDS011;23309;52.582;13.406;2022-11-22T10:14:21;32.73;;;17.43;;
37449;SDS011;23309;52.582;13.406;2022-11-22T10:17:00;32.30;;;16.93;;
37449;SDS011;23309;52.582;13.406;2022-11-22T10:19:43;27.80;;;17.00;;
37449;SDS011;23309;52.582;13.406;2022-11-22T10:22:14;31.75;;;17.95;;
37449;SDS011;23309;52.582;13.406;2022-11-22T10:24:43;29.45;;;17.15;;
37449;SDS011;23309;52.582;13.406;2022-11-22T10:27:10;28.07;;;16.33;;
37449;SDS011;23309;52.582;13.406;2022-11-22T10:29:38;28.90;;;17.00;;
37449;SDS011;23309;52.582;13.406;2022-11-22T10:32:13;31.00;;;17.03;;
37449;SDS011;23309;52.582;13.406;2022-11-22T10:34:51;32.30;;;18.33;;
37449;SDS011;23309;52.582;13.406;2022-11-22T10:37:36;29.93;;;17.10;;
37449;SDS011;23309;52.582;13.406;2022-11-22T10:40:16;27.33;;;15.53;;
37449;SDS011;23309;52.582;13.406;2022-11-22T10:42:56;28.03;;;16.63;;
37449;SDS011;23309;52.582;13.406;2022-11-22T10:45:59;34.47;;;17.30;;
37449;SDS011;23309;52.582;13.406;2022-11-22T10:48:36;29.90;;;17.10;;
37449;SDS011;23309;52.582;13.406;2022-11-22T10:51:13;31.30;;;17.53;;
37449;SDS011;23309;52.582;13.406;2022-11-22T10:53:51;35.00;;;17.60;;
37449;SDS011;23309;52.582;13.406;2022-11-22T10:56:32;32.20;;;17.23;;
37449;SDS011;23309;52.582;13.406;2022-11-22T10:59:19;30.33;;;17.73;;
37449;SDS011;23309;52.582;13.406;2022-11-22T11:02:02;30.87;;;17.53;;
37449;SDS011;23309;52.582;13.406;2022-11-22T11:04:47;32.07;;;17.57;;
37449;SDS011;23309;52.582;13.406;2022-11-22T11:07:16;35.23;;;18.40;;
37449;SDS011;23309;52.582;13.406;2022-11-22T11:09:48;32.03;;;18.17;;
37449;SDS011;23309;52.582;13.406;2022-11-22T11:12:22;37.17;;;18.53;;
37449;SDS011;23309;52.582;13.406;2022-11-22T11:14:58;28.93;;;17.03;;
37449;SDS011;23309;52.582;13.406;2022-11-22T11:17:30;33.20;;;17.50;;
37449;SDS011;23309;52.582;13.406;2022-11-22T11:20:02;36.20;;;19.53;;
37449;SDS011;23309;52.582;13.406;2022-11-22T11:22:40;33.13;;;18.10;;
37449;SDS011;23309;52.582;13.406;2022-11-22T11:27:55;32.33;;;17.67;;
37449;SDS011;23309;52.582;13.406;2022-11-22T11:30:25;31.43;;;17.50;;
37449;SDS011;23309;52.582;13.406;2022-11-22T11:32:52;36.03;;;18.80;;
37449;SDS011;23309;52.582;13.406;2022-11-22T11:35:20;32.43;;;17.50;;
37449;SDS011;23309;52.582;13.406;2022-11-22T11:37:50;35.17;;;18.63;;
37449;SDS011;23309;52.582;13.406;2022-11-22T11:40:27;34.33;;;19.00;;
37449;SDS011;23309;52.582;13.406;2022-11-22T11:43:14;32.43;;;18.67;;
37449;SDS011;23309;52.582;13.406;2022-11-22T11:45:44;30.97;;;18.27;;
37449;SDS011;23309;52.582;13.406;2022-11-22T11:51:06;35.10;;;18.83;;
37449;SDS011;23309;52.582;13.406;2022-11-22T11:53:39;33.00;;;18.70;;
37449;SDS011;23309;52.582;13.406;2022-11-22T11:56:17;34.10;;;18.93;;
37449;SDS011;23309;52.582;13.406;2022-11-22T11:59:09;36.53;;;18.90;;
37449;SDS011;23309;52.582;13.406;2022-11-22T12:01:38;32.70;;;17.70;;
37449;SDS011;23309;52.582;13.406;2022-11-22T12:04:18;35.63;;;19.17;;
37449;SDS011;23309;52.582;13.406;2022-11-22T12:06:52;32.70;;;19.00;;
37449;SDS011;23309;52.582;13.406;2022-11-22T12:09:29;30.37;;;17.47;;
37449;SDS011;23309;52.582;13.406;2022-11-22T12:12:01;34.10;;;18.57;;
37449;SDS011;23309;52.582;13.406;2022-11-22T12:14:45;35.30;;;18.43;;
37449;SDS011;23309;52.582;13.406;2022-11-22T12:17:21;39.57;;;18.90;;
37449;SDS011;23309;52.582;13.406;2022-11-22T12:19:55;34.00;;;19.40;;
37449;SDS011;23309;52.582;13.406;2022-11-22T12:22:29;33.67;;;18.30;;
37449;SDS011;23309;52.582;13.406;2022-11-22T12:25:03;36.00;;;18.60;;
37449;SDS011;23309;52.582;13.406;2022-11-22T12:27:47;34.10;;;18.07;;
37449;SDS011;23309;52.582;13.406;2022-11-22T12:30:19;31.83;;;17.60;;
37449;SDS011;23309;52.582;13.406;2022-11-22T12:32:48;31.90;;;17.60;;
37449;SDS011;23309;52.582;13.406;2022-11-22T12:35:23;29.97;;;17.30;;
37449;SDS011;23309;52.582;13.406;2022-11-22T12:37:52;31.30;;;17.90;;
37449;SDS011;23309;52.582;13.406;2022-11-22T12:40:23;31.00;;;17.80;;
37449;SDS011;23309;52.582;13.406;2022-11-22T12:42:56;31.20;;;17.83;;
37449;SDS011;23309;52.582;13.406;2022-11-22T12:45:31;32.63;;;18.70;;
37449;SDS011;23309;52.582;13.406;2022-11-22T12:48:03;30.60;;;17.13;;
37449;SDS011;23309;52.582;13.406;2022-11-22T12:50:39;35.33;;;17.40;;
37449;SDS011;23309;52.582;13.406;2022-11-22T12:53:11;32.67;;;18.20;;
37449;SDS011;23309;52.582;13.406;2022-11-22T12:55:42;32.57;;;17.40;;
37449;SDS011;23309;52.582;13.406;2022-11-22T12:58:16;29.27;;;17.23;;
37449;SDS011;23309;52.582;13.406;2022-11-22T13:00:59;31.40;;;18.50;;
37449;SDS011;23309;52.582;13.406;2022-11-22T13:03:34;30.60;;;17.77;;
37449;SDS011;23309;52.582;13.406;2022-11-22T13:06:09;31.20;;;17.93;;
37449;SDS011;23309;52.582;13.406;2022-11-22T13:08:37;32.03;;;18.00;;
37449;SDS011;23309;52.582;13.406;2022-11-22T13:11:12;30.97;;;17.13;;
37449;SDS011;23309;52.582;13.406;2022-11-22T13:13:44;28.70;;;16.37;;
37449;SDS011;23309;52.582;13.406;2022-11-22T13:16:15;33.43;;;17.93;;
37449;SDS011;23309;52.582;13.406;2022-11-22T13:18:42;31.70;;;17.37;;
37449;SDS011;23309;52.582;13.406;2022-11-22T13:21:18;34.43;;;17.70;;
37449;SDS011;23309;52.582;13.406;2022-11-22T13:23:56;32.27;;;18.17;;
37449;SDS011;23309;52.582;13.406;2022-11-22T13:26:40;35.20;;;19.17;;
37449;SDS011;23309;52.582;13.406;2022-11-22T13:29:17;29.70;;;17.80;;
37449;SDS011;23309;52.582;13.406;2022-11-22T13:32:04;32.13;;;17.10;;
37449;SDS011;23309;52.582;13.406;2022-11-22T13:34:40;32.73;;;18.03;;
37449;SDS011;23309;52.582;13.406;2022-11-22T13:37:23;33.00;;;16.87;;
37449;SDS011;23309;52.582;13.406;2022-11-22T13:39:51;30.20;;;17.33;;
37449;SDS011;23309;52.582;13.406;2022-11-22T13:42:18;26.60;;;16.40;;
37449;SDS011;23309;52.582;13.406;2022-11-22T13:44:50;32.03;;;17.90;;
37449;SDS011;23309;52.582;13.406;2022-11-22T13:47:45;29.93;;;16.40;;
37449;SDS011;23309;52.582;13.406;2022-11-22T13:53:27;31.80;;;17.63;;
37449;SDS011;23309;52.582;13.406;2022-11-22T13:55:57;36.40;;;17.80;;
37449;SDS011;23309;52.582;13.406;2022-11-22T13:59:11;31.90;;;18.13;;
37449;SDS011;23309;52.582;13.406;2022-11-22T14:04:30;30.33;;;16.90;;
37449;SDS011;23309;52.582;13.406;2022-11-22T14:07:04;30.20;;;17.80;;
37449;SDS011;23309;52.582;13.406;2022-11-22T14:09:53;28.23;;;16.60;;
37449;SDS011;23309;52.582;13.406;2022-11-22T14:12:24;29.70;;;16.73;;
37449;SDS011;23309;52.582;13.406;2022-11-22T14:15:39;30.03;;;17.23;;
37449;SDS011;23309;52.582;13.406;2022-11-22T14:18:26;33.23;;;18.00;;
37449;SDS011;23309;52.582;13.406;2022-11-22T14:21:20;29.57;;;16.80;;
37449;SDS011;23309;52.582;13.406;2022-11-22T14:24:25;31.90;;;16.87;;
37449;SDS011;23309;52.582;13.406;2022-11-22T14:27:06;28.33;;;16.23;;
37449;SDS011;23309;52.582;13.406;2022-11-22T14:29:51;29.40;;;17.50;;
37449;SDS011;23309;52.582;13.406;2022-11-22T14:32:39;29.60;;;17.13;;
37449;SDS011;23309;52.582;13.406;2022-11-22T14:35:27;32.13;;;18.37;;
37449;SDS011;23309;52.582;13.406;2022-11-22T14:38:00;25.40;;;15.70;;
37449;SDS011;23309;52.582;13.406;2022-11-22T14:40:31;35.20;;;18.00;;